sensor_id;sensor_type;location;lat;lon;timestamp;noise_LAeq;noise_LA_min;noise_LA_max;noise_LA01;noise_LA95
71020;Laerm;58902;51.436;5.980;2023-06-04T00:00:02;36.68;32.56;39.30;;
71020;Laerm;58902;51.436;5.980;2023-06-04T00:00:13;42.09;35.20;53.52;;
71020;Laerm;58902;51.436;5.980;2023-06-04T00:00:23;36.38;32.50;37.98;;
71020;Laerm;58902;51.436;5.980;2023-06-04T00:00:33;33.61;31.66;36.70;;
71020;Laerm;58902;51.436;5.980;2023-06-04T00:00:44;33.07;31.35;36.23;;
71020;Laerm;58902;51.436;5.980;2023-06-04T00:00:54;33.74;31.61;36.37;;
71020;Laerm;58902;51.436;5.980;2023-06-04T00:01:05;35.26;33.79;37.49;;
71020;Laerm;58902;51.436;5.980;2023-06-04T00:01:15;34.37;32.34;36.44;;
71020;Laerm;58902;51.436;5.980;2023-06-04T00:01:26;34.76;31.95;39.67;;
71020;Laerm;58902;51.436;5.980;2023-06-04T00:01:36;34.07;32.72;35.89;;
71020;Laerm;58902;51.436;5.980;2023-06-04T00:01:46;34.26;32.93;35.45;;
71020;Laerm;58902;51.436;5.980;2023-06-04T00:01:57;34.83;30.26;39.53;;
71020;Laerm;58902;51.436;5.980;2023-06-04T00:02:07;32.98;30.03;38.35;;
71020;Laerm;58902;51.436;5.980;2023-06-04T00:02:17;33.01;30.65;37.04;;
71020;Laerm;58902;51.436;5.980;2023-06-04T00:02:28;32.75;30.82;37.91;;
71020;Laerm;58902;51.436;5.980;2023-06-04T00:02:38;31.97;30.07;35.82;;
71020;Laerm;58902;51.436;5.980;2023-06-04T00:02:48;31.22;29.58;32.63;;
71020;Laerm;58902;51.436;5.980;2023-06-04T00:02:59;31.92;30.06;40.77;;
71020;Laerm;58902;51.436;5.980;2023-06-04T00:03:09;31.58;29.77;35.70;;
71020;Laerm;58902;51.436;5.980;2023-06-04T00:03:20;30.62;29.09;32.60;;
71020;Laerm;58902;51.436;5.980;2023-06-04T00:03:30;30.53;29.26;32.94;;
71020;Laerm;58902;51.436;5.980;2023-06-04T00:03:41;30.46;28.98;33.51;;
71020;Laerm;58902;51.436;5.980;2023-06-04T00:03:52;39.17;29.28;61.42;;
71020;Laerm;58902;51.436;5.980;2023-06-04T00:04:03;30.74;29.45;33.23;;
71020;Laerm;58902;51.436;5.980;2023-06-04T00:04:13;31.83;29.76;34.52;;
71020;Laerm;58902;51.436;5.980;2023-06-04T00:04:25;33.32;30.26;46.67;;
71020;Laerm;58902;51.436;5.980;2023-06-04T00:04:35;32.50;30.22;35.27;;
71020;Laerm;58902;51.436;5.980;2023-06-04T00:04:45;32.89;30.96;34.80;;
71020;Laerm;58902;51.436;5.980;2023-06-04T00:04:56;32.54;30.53;34.91;;
71020;Laerm;58902;51.436;5.980;2023-06-04T00:05:06;32.19;30.15;36.27;;
71020;Laerm;58902;51.436;5.980;2023-06-04T00:05:17;32.43;29.86;37.14;;
71020;Laerm;58902;51.436;5.980;2023-06-04T00:05:27;33.47;30.10;39.98;;
71020;Laerm;58902;51.436;5.980;2023-06-04T00:05:38;35.98;31.95;41.19;;
71020;Laerm;58902;51.436;5.980;2023-06-04T00:05:48;35.46;34.08;36.71;;
71020;Laerm;58902;51.436;5.980;2023-06-04T00:05:58;36.26;34.59;38.85;;
71020;Laerm;58902;51.436;5.980;2023-06-04T00:06:09;34.27;30.69;38.68;;
71020;Laerm;58902;51.436;5.980;2023-06-04T00:06:19;32.83;30.90;40.16;;
71020;Laerm;58902;51.436;5.980;2023-06-04T00:06:30;36.42;32.41;40.10;;
71020;Laerm;58902;51.436;5.980;2023-06-04T00:06:40;34.88;32.32;39.23;;
71020;Laerm;58902;51.436;5.980;2023-06-04T00:06:51;35.59;32.74;41.44;;
71020;Laerm;58902;51.436;5.980;2023-06-04T00:07:01;41.64;34.37;48.38;;
71020;Laerm;58902;51.436;5.980;2023-06-04T00:07:12;44.17;36.70;48.88;;
71020;Laerm;58902;51.436;5.980;2023-06-04T00:07:23;35.13;32.60;38.85;;
71020;Laerm;58902;51.436;5.980;2023-06-04T00:07:33;33.32;31.27;36.74;;
71020;Laerm;58902;51.436;5.980;2023-06-04T00:07:43;32.74;30.72;35.54;;
71020;Laerm;58902;51.436;5.980;2023-06-04T00:07:54;31.83;30.32;33.34;;
71020;Laerm;58902;51.436;5.980;2023-06-04T00:08:04;32.01;30.37;34.08;;
71020;Laerm;58902;51.436;5.980;2023-06-04T00:08:14;31.30;29.53;33.38;;
71020;Laerm;58902;51.436;5.980;2023-06-04T00:08:25;31.94;29.84;34.35;;
71020;Laerm;58902;51.436;5.980;2023-06-04T00:08:35;33.15;31.32;35.41;;
71020;Laerm;58902;51.436;5.980;2023-06-04T00:08:46;33.48;31.37;37.14;;
71020;Laerm;58902;51.436;5.980;2023-06-04T00:08:56;33.99;32.10;36.40;;
71020;Laerm;58902;51.436;5.980;2023-06-04T00:09:06;35.91;33.06;39.85;;
71020;Laerm;58902;51.436;5.980;2023-06-04T00:09:18;36.45;34.55;40.15;;
71020;Laerm;58902;51.436;5.980;2023-06-04T00:09:28;35.15;33.25;36.89;;
71020;Laerm;58902;51.436;5.980;2023-06-04T00:09:39;33.52;31.05;37.67;;
71020;Laerm;58902;51.436;5.980;2023-06-04T00:09:49;32.33;30.17;34.28;;
71020;Laerm;58902;51.436;5.980;2023-06-04T00:10:00;32.04;30.32;34.15;;
71020;Laerm;58902;51.436;5.980;2023-06-04T00:10:10;32.16;30.72;33.61;;
71020;Laerm;58902;51.436;5.980;2023-06-04T00:10:20;31.78;30.38;33.08;;
71020;Laerm;58902;51.436;5.980;2023-06-04T00:10:31;32.14;30.83;33.88;;
71020;Laerm;58902;51.436;5.980;2023-06-04T00:10:43;32.70;30.47;35.15;;
71020;Laerm;58902;51.436;5.980;2023-06-04T00:10:53;32.37;30.18;35.58;;
71020;Laerm;58902;51.436;5.980;2023-06-04T00:11:03;34.41;30.96;38.13;;
71020;Laerm;58902;51.436;5.980;2023-06-04T00:11:14;32.38;30.50;37.88;;
71020;Laerm;58902;51.436;5.980;2023-06-04T00:11:24;31.16;29.66;34.51;;
71020;Laerm;58902;51.436;5.980;2023-06-04T00:11:36;32.60;29.27;35.75;;
71020;Laerm;58902;51.436;5.980;2023-06-04T00:11:47;35.75;33.30;39.10;;
71020;Laerm;58902;51.436;5.980;2023-06-04T00:11:57;34.49;32.50;36.34;;
71020;Laerm;58902;51.436;5.980;2023-06-04T00:12:07;33.94;31.84;37.25;;
71020;Laerm;58902;51.436;5.980;2023-06-04T00:12:18;33.69;31.38;35.28;;
71020;Laerm;58902;51.436;5.980;2023-06-04T00:12:28;34.16;31.87;43.62;;
71020;Laerm;58902;51.436;5.980;2023-06-04T00:12:39;33.60;31.37;37.50;;
71020;Laerm;58902;51.436;5.980;2023-06-04T00:12:49;32.79;31.23;33.90;;
71020;Laerm;58902;51.436;5.980;2023-06-04T00:13:00;32.90;31.27;35.03;;
71020;Laerm;58902;51.436;5.980;2023-06-04T00:13:10;33.33;31.63;34.96;;
71020;Laerm;58902;51.436;5.980;2023-06-04T00:13:21;38.83;33.56;42.54;;
71020;Laerm;58902;51.436;5.980;2023-06-04T00:13:31;32.76;30.02;36.33;;
71020;Laerm;58902;51.436;5.980;2023-06-04T00:13:42;31.66;30.06;34.17;;
71020;Laerm;58902;51.436;5.980;2023-06-04T00:13:52;31.26;29.42;36.78;;
71020;Laerm;58902;51.436;5.980;2023-06-04T00:14:02;30.92;29.51;33.11;;
71020;Laerm;58902;51.436;5.980;2023-06-04T00:14:13;30.85;29.05;33.59;;
71020;Laerm;58902;51.436;5.980;2023-06-04T00:14:23;30.75;29.41;32.75;;
71020;Laerm;58902;51.436;5.980;2023-06-04T00:14:34;30.51;28.94;34.47;;
71020;Laerm;58902;51.436;5.980;2023-06-04T00:14:44;30.24;28.89;33.41;;
71020;Laerm;58902;51.436;5.980;2023-06-04T00:14:55;30.33;28.91;34.83;;
71020;Laerm;58902;51.436;5.980;2023-06-04T00:15:05;30.30;28.90;32.12;;
71020;Laerm;58902;51.436;5.980;2023-06-04T00:15:16;30.46;28.97;32.44;;
71020;Laerm;58902;51.436;5.980;2023-06-04T00:15:29;30.87;29.06;35.68;;
71020;Laerm;58902;51.436;5.980;2023-06-04T00:15:39;30.80;29.17;32.56;;
71020;Laerm;58902;51.436;5.980;2023-06-04T00:15:50;31.74;29.98;34.96;;
71020;Laerm;58902;51.436;5.980;2023-06-04T00:16:00;33.83;30.53;37.62;;
71020;Laerm;58902;51.436;5.980;2023-06-04T00:16:10;32.36;30.35;35.80;;
71020;Laerm;58902;51.436;5.980;2023-06-04T00:16:21;33.55;31.44;37.95;;
71020;Laerm;58902;51.436;5.980;2023-06-04T00:16:31;34.09;31.21;37.81;;
71020;Laerm;58902;51.436;5.980;2023-06-04T00:16:42;41.48;32.71;60.71;;
71020;Laerm;58902;51.436;5.980;2023-06-04T00:16:52;33.20;30.96;37.97;;
71020;Laerm;58902;51.436;5.980;2023-06-04T00:17:02;32.53;30.53;35.88;;
71020;Laerm;58902;51.436;5.980;2023-06-04T00:17:13;32.24;30.21;35.20;;
71020;Laerm;58902;51.436;5.980;2023-06-04T00:17:23;31.72;29.91;34.34;;
71020;Laerm;58902;51.436;5.980;2023-06-04T00:17:33;31.02;29.45;32.72;;
71020;Laerm;58902;51.436;5.980;2023-06-04T00:17:44;33.51;29.98;36.76;;
71020;Laerm;58902;51.436;5.980;2023-06-04T00:17:54;34.78;32.21;39.98;;
71020;Laerm;58902;51.436;5.980;2023-06-04T00:18:06;35.46;31.84;39.70;;
71020;Laerm;58902;51.436;5.980;2023-06-04T00:18:17;35.47;32.88;38.79;;
71020;Laerm;58902;51.436;5.980;2023-06-04T00:18:27;34.39;32.92;37.95;;
71020;Laerm;58902;51.436;5.980;2023-06-04T00:18:37;34.31;30.53;38.18;;
71020;Laerm;58902;51.436;5.980;2023-06-04T00:18:48;33.62;30.15;38.57;;
71020;Laerm;58902;51.436;5.980;2023-06-04T00:18:58;34.18;31.90;40.44;;
71020;Laerm;58902;51.436;5.980;2023-06-04T00:19:09;36.56;33.18;40.29;;
71020;Laerm;58902;51.436;5.980;2023-06-04T00:19:19;33.37;31.22;39.66;;
71020;Laerm;58902;51.436;5.980;2023-06-04T00:19:29;32.26;30.66;36.66;;
71020;Laerm;58902;51.436;5.980;2023-06-04T00:19:40;32.61;30.13;36.28;;
71020;Laerm;58902;51.436;5.980;2023-06-04T00:19:51;33.52;32.05;35.30;;
71020;Laerm;58902;51.436;5.980;2023-06-04T00:20:01;37.32;32.65;56.06;;
71020;Laerm;58902;51.436;5.980;2023-06-04T00:20:12;32.21;29.73;36.20;;
71020;Laerm;58902;51.436;5.980;2023-06-04T00:20:22;33.32;30.79;40.27;;
71020;Laerm;58902;51.436;5.980;2023-06-04T00:20:32;34.28;32.03;41.07;;
71020;Laerm;58902;51.436;5.980;2023-06-04T00:20:43;39.49;33.30;58.75;;
71020;Laerm;58902;51.436;5.980;2023-06-04T00:20:53;35.48;31.98;42.79;;
71020;Laerm;58902;51.436;5.980;2023-06-04T00:21:03;34.93;30.72;40.63;;
71020;Laerm;58902;51.436;5.980;2023-06-04T00:21:14;33.88;32.43;37.61;;
71020;Laerm;58902;51.436;5.980;2023-06-04T00:21:24;34.25;32.19;41.55;;
71020;Laerm;58902;51.436;5.980;2023-06-04T00:21:35;35.90;32.59;41.30;;
71020;Laerm;58902;51.436;5.980;2023-06-04T00:21:45;32.76;29.92;36.83;;
71020;Laerm;58902;51.436;5.980;2023-06-04T00:21:56;33.44;30.17;38.50;;
71020;Laerm;58902;51.436;5.980;2023-06-04T00:22:06;32.82;30.08;39.45;;
71020;Laerm;58902;51.436;5.980;2023-06-04T00:22:17;37.53;29.66;59.61;;
71020;Laerm;58902;51.436;5.980;2023-06-04T00:22:27;32.06;29.42;40.39;;
71020;Laerm;58902;51.436;5.980;2023-06-04T00:22:38;32.25;29.53;42.48;;
71020;Laerm;58902;51.436;5.980;2023-06-04T00:22:51;33.90;29.32;55.30;;
71020;Laerm;58902;51.436;5.980;2023-06-04T00:23:02;30.90;29.42;33.19;;
71020;Laerm;58902;51.436;5.980;2023-06-04T00:23:12;30.95;29.52;34.94;;
71020;Laerm;58902;51.436;5.980;2023-06-04T00:23:22;33.36;30.32;36.89;;
71020;Laerm;58902;51.436;5.980;2023-06-04T00:23:33;32.18;30.22;44.78;;
71020;Laerm;58902;51.436;5.980;2023-06-04T00:23:43;38.62;31.44;59.00;;
71020;Laerm;58902;51.436;5.980;2023-06-04T00:23:53;32.64;30.72;36.17;;
71020;Laerm;58902;51.436;5.980;2023-06-04T00:24:04;33.84;30.87;36.58;;
71020;Laerm;58902;51.436;5.980;2023-06-04T00:24:15;32.86;30.06;37.63;;
71020;Laerm;58902;51.436;5.980;2023-06-04T00:24:25;31.72;29.59;36.09;;
71020;Laerm;58902;51.436;5.980;2023-06-04T00:24:37;32.01;30.34;33.96;;
71020;Laerm;58902;51.436;5.980;2023-06-04T00:24:47;34.75;31.45;39.42;;
71020;Laerm;58902;51.436;5.980;2023-06-04T00:24:58;36.81;32.36;40.30;;
71020;Laerm;58902;51.436;5.980;2023-06-04T00:25:09;32.72;30.76;35.19;;
71020;Laerm;58902;51.436;5.980;2023-06-04T00:25:19;31.56;30.06;34.10;;
71020;Laerm;58902;51.436;5.980;2023-06-04T00:25:30;31.55;30.24;33.02;;
71020;Laerm;58902;51.436;5.980;2023-06-04T00:25:41;32.37;29.73;44.24;;
71020;Laerm;58902;51.436;5.980;2023-06-04T00:25:51;31.40;29.81;33.54;;
71020;Laerm;58902;51.436;5.980;2023-06-04T00:26:01;32.25;30.01;35.94;;
71020;Laerm;58902;51.436;5.980;2023-06-04T00:26:12;31.45;30.06;32.99;;
71020;Laerm;58902;51.436;5.980;2023-06-04T00:26:22;30.92;29.62;32.81;;
71020;Laerm;58902;51.436;5.980;2023-06-04T00:26:33;31.59;30.15;35.83;;
71020;Laerm;58902;51.436;5.980;2023-06-04T00:26:44;32.71;30.08;39.00;;
71020;Laerm;58902;51.436;5.980;2023-06-04T00:26:54;32.87;29.46;38.09;;
71020;Laerm;58902;51.436;5.980;2023-06-04T00:27:05;32.32;30.42;35.34;;
71020;Laerm;58902;51.436;5.980;2023-06-04T00:27:15;30.94;29.69;33.98;;
71020;Laerm;58902;51.436;5.980;2023-06-04T00:27:26;31.45;29.63;35.43;;
71020;Laerm;58902;51.436;5.980;2023-06-04T00:27:36;31.95;30.42;36.33;;
71020;Laerm;58902;51.436;5.980;2023-06-04T00:27:47;35.53;31.33;39.85;;
71020;Laerm;58902;51.436;5.980;2023-06-04T00:27:57;32.84;30.59;36.13;;
71020;Laerm;58902;51.436;5.980;2023-06-04T00:28:08;31.42;29.72;35.15;;
71020;Laerm;58902;51.436;5.980;2023-06-04T00:28:18;30.88;29.62;32.71;;
71020;Laerm;58902;51.436;5.980;2023-06-04T00:28:28;36.31;29.63;54.09;;
71020;Laerm;58902;51.436;5.980;2023-06-04T00:28:38;33.65;31.23;41.56;;
71020;Laerm;58902;51.436;5.980;2023-06-04T00:28:53;40.39;30.88;61.02;;
71020;Laerm;58902;51.436;5.980;2023-06-04T00:29:04;33.82;30.49;43.47;;
71020;Laerm;58902;51.436;5.980;2023-06-04T00:29:14;31.81;29.82;33.69;;
71020;Laerm;58902;51.436;5.980;2023-06-04T00:29:25;31.99;29.98;35.81;;
71020;Laerm;58902;51.436;5.980;2023-06-04T00:29:35;33.87;30.28;38.64;;
71020;Laerm;58902;51.436;5.980;2023-06-04T00:29:46;33.15;29.95;45.67;;
71020;Laerm;58902;51.436;5.980;2023-06-04T00:29:56;32.90;30.04;50.09;;
71020;Laerm;58902;51.436;5.980;2023-06-04T00:30:07;31.26;29.33;35.06;;
71020;Laerm;58902;51.436;5.980;2023-06-04T00:30:17;31.42;29.84;33.90;;
71020;Laerm;58902;51.436;5.980;2023-06-04T00:30:27;31.63;29.46;35.11;;
71020;Laerm;58902;51.436;5.980;2023-06-04T00:30:38;31.09;29.38;33.21;;
71020;Laerm;58902;51.436;5.980;2023-06-04T00:30:48;31.27;29.75;40.26;;
71020;Laerm;58902;51.436;5.980;2023-06-04T00:30:58;30.62;29.08;33.05;;
71020;Laerm;58902;51.436;5.980;2023-06-04T00:31:09;39.72;29.96;53.02;;
71020;Laerm;58902;51.436;5.980;2023-06-04T00:31:20;32.50;30.36;37.63;;
71020;Laerm;58902;51.436;5.980;2023-06-04T00:31:31;31.62;30.37;33.15;;
71020;Laerm;58902;51.436;5.980;2023-06-04T00:31:41;31.68;29.98;33.56;;
71020;Laerm;58902;51.436;5.980;2023-06-04T00:31:52;31.29;29.94;32.74;;
71020;Laerm;58902;51.436;5.980;2023-06-04T00:32:02;31.47;29.89;36.91;;
71020;Laerm;58902;51.436;5.980;2023-06-04T00:32:13;34.32;30.67;36.00;;
71020;Laerm;58902;51.436;5.980;2023-06-04T00:32:24;34.60;33.19;36.75;;
71020;Laerm;58902;51.436;5.980;2023-06-04T00:32:34;39.23;33.17;60.09;;
71020;Laerm;58902;51.436;5.980;2023-06-04T00:32:44;36.91;34.18;40.02;;
71020;Laerm;58902;51.436;5.980;2023-06-04T00:32:57;35.89;31.85;39.58;;
71020;Laerm;58902;51.436;5.980;2023-06-04T00:33:07;32.99;30.74;35.96;;
71020;Laerm;58902;51.436;5.980;2023-06-04T00:33:17;37.02;31.05;53.20;;
71020;Laerm;58902;51.436;5.980;2023-06-04T00:33:27;32.68;31.22;40.86;;
71020;Laerm;58902;51.436;5.980;2023-06-04T00:33:38;34.20;31.24;46.03;;
71020;Laerm;58902;51.436;5.980;2023-06-04T00:33:49;32.88;31.16;39.71;;
71020;Laerm;58902;51.436;5.980;2023-06-04T00:34:03;38.03;34.38;47.85;;
71020;Laerm;58902;51.436;5.980;2023-06-04T00:34:14;34.13;32.14;38.59;;
71020;Laerm;58902;51.436;5.980;2023-06-04T00:34:24;33.27;31.78;34.74;;
71020;Laerm;58902;51.436;5.980;2023-06-04T00:34:34;36.55;32.47;54.30;;
71020;Laerm;58902;51.436;5.980;2023-06-04T00:34:51;35.58;33.07;42.42;;
71020;Laerm;58902;51.436;5.980;2023-06-04T00:35:02;35.08;32.20;38.09;;
71020;Laerm;58902;51.436;5.980;2023-06-04T00:35:12;33.35;31.98;34.87;;
71020;Laerm;58902;51.436;5.980;2023-06-04T00:35:23;33.16;31.39;36.82;;
71020;Laerm;58902;51.436;5.980;2023-06-04T00:35:33;32.87;31.21;34.59;;
71020;Laerm;58902;51.436;5.980;2023-06-04T00:35:44;32.52;30.99;34.26;;
71020;Laerm;58902;51.436;5.980;2023-06-04T00:35:54;33.55;31.09;40.97;;
71020;Laerm;58902;51.436;5.980;2023-06-04T00:36:04;33.33;31.74;34.59;;
71020;Laerm;58902;51.436;5.980;2023-06-04T00:36:15;32.94;31.11;34.29;;
71020;Laerm;58902;51.436;5.980;2023-06-04T00:36:25;32.37;29.61;35.49;;
71020;Laerm;58902;51.436;5.980;2023-06-04T00:36:36;30.98;29.57;32.90;;
71020;Laerm;58902;51.436;5.980;2023-06-04T00:36:46;31.24;29.37;34.57;;
71020;Laerm;58902;51.436;5.980;2023-06-04T00:36:56;33.85;30.61;36.69;;
71020;Laerm;58902;51.436;5.980;2023-06-04T00:37:07;33.68;32.17;34.99;;
71020;Laerm;58902;51.436;5.980;2023-06-04T00:37:17;33.91;30.58;36.38;;
71020;Laerm;58902;51.436;5.980;2023-06-04T00:37:28;33.15;30.94;48.58;;
71020;Laerm;58902;51.436;5.980;2023-06-04T00:37:38;33.14;31.57;35.72;;
71020;Laerm;58902;51.436;5.980;2023-06-04T00:37:49;32.51;30.59;36.74;;
71020;Laerm;58902;51.436;5.980;2023-06-04T00:38:00;32.19;30.49;34.27;;
71020;Laerm;58902;51.436;5.980;2023-06-04T00:38:10;33.42;30.17;39.19;;
71020;Laerm;58902;51.436;5.980;2023-06-04T00:38:21;37.04;33.51;49.40;;
71020;Laerm;58902;51.436;5.980;2023-06-04T00:38:31;38.61;35.04;44.25;;
71020;Laerm;58902;51.436;5.980;2023-06-04T00:38:41;38.16;34.62;52.25;;
71020;Laerm;58902;51.436;5.980;2023-06-04T00:38:52;33.93;30.83;36.83;;
71020;Laerm;58902;51.436;5.980;2023-06-04T00:39:02;32.99;31.38;35.10;;
71020;Laerm;58902;51.436;5.980;2023-06-04T00:39:12;33.15;31.81;36.37;;
71020;Laerm;58902;51.436;5.980;2023-06-04T00:39:23;31.97;30.36;33.70;;
71020;Laerm;58902;51.436;5.980;2023-06-04T00:39:33;31.86;29.91;46.24;;
71020;Laerm;58902;51.436;5.980;2023-06-04T00:39:44;31.50;29.75;38.59;;
71020;Laerm;58902;51.436;5.980;2023-06-04T00:39:55;33.35;31.07;39.39;;
71020;Laerm;58902;51.436;5.980;2023-06-04T00:40:05;32.22;30.47;35.51;;
71020;Laerm;58902;51.436;5.980;2023-06-04T00:40:16;32.12;30.81;33.74;;
71020;Laerm;58902;51.436;5.980;2023-06-04T00:40:26;31.65;29.93;33.30;;
71020;Laerm;58902;51.436;5.980;2023-06-04T00:40:36;33.20;30.03;40.66;;
71020;Laerm;58902;51.436;5.980;2023-06-04T00:40:47;32.83;29.95;42.40;;
71020;Laerm;58902;51.436;5.980;2023-06-04T00:40:57;32.57;30.22;34.45;;
71020;Laerm;58902;51.436;5.980;2023-06-04T00:41:07;32.77;31.16;33.76;;
71020;Laerm;58902;51.436;5.980;2023-06-04T00:41:18;32.63;29.36;34.28;;
71020;Laerm;58902;51.436;5.980;2023-06-04T00:41:28;34.58;31.34;35.60;;
71020;Laerm;58902;51.436;5.980;2023-06-04T00:41:38;34.48;33.42;35.62;;
71020;Laerm;58902;51.436;5.980;2023-06-04T00:41:49;33.98;29.23;37.10;;
71020;Laerm;58902;51.436;5.980;2023-06-04T00:42:00;30.93;29.46;32.16;;
71020;Laerm;58902;51.436;5.980;2023-06-04T00:42:10;32.23;29.49;45.02;;
71020;Laerm;58902;51.436;5.980;2023-06-04T00:42:20;33.00;30.40;42.42;;
71020;Laerm;58902;51.436;5.980;2023-06-04T00:42:31;32.08;29.99;35.40;;
71020;Laerm;58902;51.436;5.980;2023-06-04T00:42:42;31.57;30.27;36.46;;
71020;Laerm;58902;51.436;5.980;2023-06-04T00:42:52;32.75;30.71;37.94;;
71020;Laerm;58902;51.436;5.980;2023-06-04T00:43:02;34.69;30.44;45.40;;
71020;Laerm;58902;51.436;5.980;2023-06-04T00:43:13;35.43;32.73;45.20;;
71020;Laerm;58902;51.436;5.980;2023-06-04T00:43:23;34.28;30.81;37.72;;
71020;Laerm;58902;51.436;5.980;2023-06-04T00:43:37;32.12;29.98;37.66;;
71020;Laerm;58902;51.436;5.980;2023-06-04T00:43:48;30.90;29.43;35.91;;
71020;Laerm;58902;51.436;5.980;2023-06-04T00:44:05;38.42;29.75;62.83;;
71020;Laerm;58902;51.436;5.980;2023-06-04T00:44:16;33.33;31.89;34.78;;
71020;Laerm;58902;51.436;5.980;2023-06-04T00:44:27;33.36;31.36;37.13;;
71020;Laerm;58902;51.436;5.980;2023-06-04T00:44:38;33.14;30.43;37.65;;
71020;Laerm;58902;51.436;5.980;2023-06-04T00:44:53;35.20;31.68;37.71;;
71020;Laerm;58902;51.436;5.980;2023-06-04T00:45:07;33.35;29.66;35.80;;
71020;Laerm;58902;51.436;5.980;2023-06-04T00:45:19;35.21;33.67;41.58;;
71020;Laerm;58902;51.436;5.980;2023-06-04T00:45:30;34.25;30.78;39.79;;
71020;Laerm;58902;51.436;5.980;2023-06-04T00:45:41;31.19;29.49;33.29;;
71020;Laerm;58902;51.436;5.980;2023-06-04T00:45:52;31.37;29.76;33.84;;
71020;Laerm;58902;51.436;5.980;2023-06-04T00:46:03;31.80;30.11;33.38;;
71020;Laerm;58902;51.436;5.980;2023-06-04T00:46:13;32.42;30.01;36.12;;
71020;Laerm;58902;51.436;5.980;2023-06-04T00:46:28;32.01;30.25;33.53;;
71020;Laerm;58902;51.436;5.980;2023-06-04T00:46:38;33.20;30.27;47.85;;
71020;Laerm;58902;51.436;5.980;2023-06-04T00:46:49;31.74;30.35;33.95;;
71020;Laerm;58902;51.436;5.980;2023-06-04T00:47:00;31.51;30.03;33.11;;
71020;Laerm;58902;51.436;5.980;2023-06-04T00:47:13;31.04;29.58;32.48;;
71020;Laerm;58902;51.436;5.980;2023-06-04T00:47:24;31.19;29.62;32.66;;
71020;Laerm;58902;51.436;5.980;2023-06-04T00:47:35;31.26;29.23;32.62;;
71020;Laerm;58902;51.436;5.980;2023-06-04T00:47:45;31.78;29.44;34.79;;
71020;Laerm;58902;51.436;5.980;2023-06-04T00:47:56;30.88;29.56;34.48;;
71020;Laerm;58902;51.436;5.980;2023-06-04T00:48:06;30.60;28.63;32.18;;
71020;Laerm;58902;51.436;5.980;2023-06-04T00:48:17;32.92;29.50;35.00;;
71020;Laerm;58902;51.436;5.980;2023-06-04T00:48:29;33.42;31.68;35.05;;
71020;Laerm;58902;51.436;5.980;2023-06-04T00:48:40;32.53;29.75;35.76;;
71020;Laerm;58902;51.436;5.980;2023-06-04T00:48:53;31.51;30.24;32.94;;
71020;Laerm;58902;51.436;5.980;2023-06-04T00:49:05;32.20;30.50;37.88;;
71020;Laerm;58902;51.436;5.980;2023-06-04T00:49:15;34.05;30.64;43.95;;
71020;Laerm;58902;51.436;5.980;2023-06-04T00:49:26;34.60;31.08;40.98;;
71020;Laerm;58902;51.436;5.980;2023-06-04T00:49:37;36.67;31.02;41.34;;
71020;Laerm;58902;51.436;5.980;2023-06-04T00:49:47;36.10;33.49;40.40;;
71020;Laerm;58902;51.436;5.980;2023-06-04T00:49:57;33.57;31.79;36.43;;
71020;Laerm;58902;51.436;5.980;2023-06-04T00:50:08;34.08;32.92;39.24;;
71020;Laerm;58902;51.436;5.980;2023-06-04T00:50:19;32.59;30.03;36.99;;
71020;Laerm;58902;51.436;5.980;2023-06-04T00:50:31;31.17;29.81;32.66;;
71020;Laerm;58902;51.436;5.980;2023-06-04T00:50:43;31.67;30.13;34.38;;
71020;Laerm;58902;51.436;5.980;2023-06-04T00:50:53;31.60;30.18;33.24;;
71020;Laerm;58902;51.436;5.980;2023-06-04T00:51:04;31.89;30.56;36.77;;
71020;Laerm;58902;51.436;5.980;2023-06-04T00:51:15;33.57;31.31;36.71;;
71020;Laerm;58902;51.436;5.980;2023-06-04T00:51:26;33.44;32.11;34.95;;
71020;Laerm;58902;51.436;5.980;2023-06-04T00:51:36;34.50;31.64;36.65;;
71020;Laerm;58902;51.436;5.980;2023-06-04T00:51:48;34.45;31.07;37.56;;
71020;Laerm;58902;51.436;5.980;2023-06-04T00:51:58;35.58;33.51;38.50;;
71020;Laerm;58902;51.436;5.980;2023-06-04T00:52:09;34.17;31.10;37.58;;
71020;Laerm;58902;51.436;5.980;2023-06-04T00:52:20;34.76;30.88;41.37;;
71020;Laerm;58902;51.436;5.980;2023-06-04T00:52:31;31.53;30.27;33.33;;
71020;Laerm;58902;51.436;5.980;2023-06-04T00:52:41;32.67;30.20;36.73;;
71020;Laerm;58902;51.436;5.980;2023-06-04T00:52:51;35.60;33.19;42.91;;
71020;Laerm;58902;51.436;5.980;2023-06-04T00:53:02;36.94;34.44;39.02;;
71020;Laerm;58902;51.436;5.980;2023-06-04T00:53:12;32.92;30.22;37.69;;
71020;Laerm;58902;51.436;5.980;2023-06-04T00:53:23;31.63;30.04;33.41;;
71020;Laerm;58902;51.436;5.980;2023-06-04T00:53:34;32.45;30.00;39.10;;
71020;Laerm;58902;51.436;5.980;2023-06-04T00:53:45;31.76;29.90;40.38;;
71020;Laerm;58902;51.436;5.980;2023-06-04T00:53:55;32.78;31.58;34.15;;
71020;Laerm;58902;51.436;5.980;2023-06-04T00:54:06;38.24;32.13;55.51;;
71020;Laerm;58902;51.436;5.980;2023-06-04T00:54:18;33.64;30.33;40.51;;
71020;Laerm;58902;51.436;5.980;2023-06-04T00:54:30;32.51;30.11;43.98;;
71020;Laerm;58902;51.436;5.980;2023-06-04T00:54:42;32.27;30.17;40.55;;
71020;Laerm;58902;51.436;5.980;2023-06-04T00:54:53;32.50;29.74;37.09;;
71020;Laerm;58902;51.436;5.980;2023-06-04T00:55:04;36.03;34.06;38.11;;
71020;Laerm;58902;51.436;5.980;2023-06-04T00:55:15;35.46;34.32;37.84;;
71020;Laerm;58902;51.436;5.980;2023-06-04T00:55:28;34.67;32.61;36.66;;
71020;Laerm;58902;51.436;5.980;2023-06-04T00:55:38;33.77;32.22;35.13;;
71020;Laerm;58902;51.436;5.980;2023-06-04T00:55:48;32.88;31.56;34.47;;
71020;Laerm;58902;51.436;5.980;2023-06-04T00:55:59;31.03;29.51;33.83;;
71020;Laerm;58902;51.436;5.980;2023-06-04T00:56:10;30.26;29.11;32.15;;
71020;Laerm;58902;51.436;5.980;2023-06-04T00:56:20;29.90;28.91;31.26;;
71020;Laerm;58902;51.436;5.980;2023-06-04T00:56:30;30.29;28.97;33.82;;
71020;Laerm;58902;51.436;5.980;2023-06-04T00:56:41;31.30;28.99;32.84;;
71020;Laerm;58902;51.436;5.980;2023-06-04T00:56:52;31.55;30.27;33.19;;
71020;Laerm;58902;51.436;5.980;2023-06-04T00:57:02;30.96;29.23;32.68;;
71020;Laerm;58902;51.436;5.980;2023-06-04T00:57:13;30.52;28.96;33.58;;
71020;Laerm;58902;51.436;5.980;2023-06-04T00:57:23;31.15;29.20;33.84;;
71020;Laerm;58902;51.436;5.980;2023-06-04T00:57:33;37.39;29.70;55.62;;
71020;Laerm;58902;51.436;5.980;2023-06-04T00:57:44;35.01;29.12;49.31;;
71020;Laerm;58902;51.436;5.980;2023-06-04T00:57:54;31.56;28.88;35.90;;
71020;Laerm;58902;51.436;5.980;2023-06-04T00:58:04;30.51;28.74;37.54;;
71020;Laerm;58902;51.436;5.980;2023-06-04T00:58:15;30.31;29.07;31.73;;
71020;Laerm;58902;51.436;5.980;2023-06-04T00:58:25;30.79;29.59;32.72;;
71020;Laerm;58902;51.436;5.980;2023-06-04T00:58:39;30.89;29.42;36.66;;
71020;Laerm;58902;51.436;5.980;2023-06-04T00:58:50;31.18;29.23;40.87;;
71020;Laerm;58902;51.436;5.980;2023-06-04T00:59:03;30.24;28.81;31.65;;
71020;Laerm;58902;51.436;5.980;2023-06-04T00:59:14;30.27;29.10;34.37;;
71020;Laerm;58902;51.436;5.980;2023-06-04T00:59:24;31.75;29.31;33.48;;
71020;Laerm;58902;51.436;5.980;2023-06-04T00:59:35;32.45;30.73;33.67;;
71020;Laerm;58902;51.436;5.980;2023-06-04T00:59:47;32.70;30.74;37.33;;
71020;Laerm;58902;51.436;5.980;2023-06-04T00:59:57;32.93;30.53;35.97;;